createdAt,value
2022-08-27T00:01:50.622Z,100786.59
2022-08-27T00:04:19.871Z,100787.19
2022-08-27T00:06:47.797Z,100793.06
2022-08-27T00:09:15.750Z,100791.81
2022-08-27T00:11:44.988Z,100799.41
2022-08-27T00:14:12.976Z,100790.03
2022-08-27T00:16:40.753Z,100795.16
2022-08-27T00:19:08.598Z,100787.44
2022-08-27T00:21:37.872Z,100791.34
2022-08-27T00:24:06.151Z,100786.53
2022-08-27T00:26:33.921Z,100801.00
2022-08-27T00:29:03.008Z,100799.75
2022-08-27T00:31:30.830Z,100796.34
2022-08-27T00:33:59.204Z,100793.31
2022-08-27T00:36:26.938Z,100791.50
2022-08-27T00:38:56.175Z,100792.16
2022-08-27T00:41:24.379Z,100793.59
2022-08-27T00:43:54.302Z,100793.63
2022-08-27T00:46:26.113Z,100798.31
2022-08-27T00:48:56.316Z,100795.56
2022-08-27T00:51:24.971Z,100794.75
2022-08-27T00:53:53.371Z,100791.16
2022-08-27T00:56:25.321Z,100787.81
2022-08-27T00:58:54.718Z,100786.97
2022-08-27T01:01:25.527Z,100794.25
2022-08-27T01:03:56.804Z,100800.38
2022-08-27T01:06:26.350Z,100812.03
2022-08-27T01:08:57.180Z,100802.00
2022-08-27T01:11:26.753Z,100801.31
2022-08-27T01:13:59.585Z,100809.13
2022-08-27T01:16:32.373Z,100815.41
2022-08-27T01:19:01.147Z,100822.78
2022-08-27T01:21:33.959Z,100823.44
2022-08-27T01:24:23.340Z,100831.41
2022-08-27T01:26:51.411Z,100834.38
2022-08-27T01:29:19.540Z,100825.00
2022-08-27T01:31:48.115Z,100823.41
2022-08-27T01:34:16.152Z,100826.88
2022-08-27T01:36:43.948Z,100828.97
2022-08-27T01:39:11.756Z,100832.06
2022-08-27T01:41:42.033Z,100828.97
2022-08-27T01:44:09.822Z,100833.34
2022-08-27T01:46:37.676Z,100829.41
2022-08-27T01:49:05.519Z,100838.25
2022-08-27T01:51:33.267Z,100839.34
2022-08-27T01:54:01.155Z,100849.13
2022-08-27T01:56:28.934Z,100829.13
2022-08-27T01:58:58.039Z,100839.25
2022-08-27T02:01:25.871Z,100829.44
2022-08-27T02:03:53.709Z,100823.75
2022-08-27T02:06:21.495Z,100825.41
2022-08-27T02:08:49.292Z,100828.06
2022-08-27T02:11:18.172Z,100821.56
2022-08-27T02:13:46.031Z,100824.91
2022-08-27T02:16:15.605Z,100821.13
2022-08-27T02:18:43.666Z,100824.22
2022-08-27T02:21:12.854Z,100830.75
2022-08-27T02:23:42.036Z,100825.63
2022-08-27T02:26:09.871Z,100833.84
2022-08-27T02:28:38.312Z,100829.81
2022-08-27T02:31:07.466Z,100818.72
2022-08-27T02:33:36.650Z,100829.88
2022-08-27T02:36:04.521Z,100818.38
2022-08-27T02:38:34.150Z,100821.97
2022-08-27T02:41:01.933Z,100811.19
2022-08-27T02:43:31.459Z,100810.38
2022-08-27T02:45:59.346Z,100804.22
2022-08-27T02:48:27.430Z,100810.34
2022-08-27T02:50:56.516Z,100812.78
2022-08-27T02:53:24.407Z,100812.22
2022-08-27T02:55:52.915Z,100819.44
2022-08-27T02:58:20.700Z,100811.47
2022-08-27T03:00:48.613Z,100814.44
2022-08-27T03:03:16.467Z,100812.75
2022-08-27T03:05:44.331Z,100815.78
2022-08-27T03:08:13.470Z,100814.19
2022-08-27T03:10:41.868Z,100818.66
2022-08-27T03:13:09.724Z,100816.25
2022-08-27T03:15:37.479Z,100809.94
2022-08-27T03:18:28.327Z,100813.75
2022-08-27T03:20:57.451Z,100810.16
2022-08-27T03:23:28.182Z,100815.03
2022-08-27T03:25:57.766Z,100815.34
2022-08-27T03:28:27.328Z,100819.22
2022-08-27T03:30:58.471Z,100807.94
2022-08-27T03:33:27.166Z,100814.34
2022-08-27T03:35:55.071Z,100809.72
2022-08-27T03:38:23.319Z,100811.13
2022-08-27T03:40:52.564Z,100809.78
2022-08-27T03:43:22.087Z,100807.19
2022-08-27T03:46:01.633Z,100811.00
2022-08-27T03:48:30.899Z,100814.53
2022-08-27T03:50:58.638Z,100815.50
2022-08-27T03:53:26.521Z,100824.63
2022-08-27T03:55:55.606Z,100814.91
2022-08-27T03:58:23.362Z,100816.75
2022-08-27T04:00:51.138Z,100817.44
2022-08-27T04:03:18.891Z,100816.06
2022-08-27T04:05:46.663Z,100820.59
2022-08-27T04:08:14.451Z,100817.81
2022-08-27T04:10:42.548Z,100819.41
2022-08-27T04:13:11.649Z,100817.13
2022-08-27T04:15:43.901Z,100819.59
2022-08-27T04:18:12.515Z,100811.75
2022-08-27T04:20:40.355Z,100817.38
2022-08-27T04:23:09.331Z,100819.34
2022-08-27T04:25:39.954Z,100816.25
2022-08-27T04:28:08.274Z,100816.63
2022-08-27T04:30:41.160Z,100823.41
2022-08-27T04:33:08.927Z,100826.00
2022-08-27T04:35:36.663Z,100821.88
2022-08-27T04:38:04.776Z,100816.75
2022-08-27T04:40:46.533Z,100817.63
2022-08-27T04:43:17.640Z,100818.94
2022-08-27T04:45:48.567Z,100817.63
2022-08-27T04:48:18.620Z,100824.34
2022-08-27T04:50:48.158Z,100818.38
2022-08-27T04:53:17.655Z,100832.00
2022-08-27T04:55:46.583Z,100820.13
2022-08-27T04:58:14.650Z,100825.75
2022-08-27T05:00:43.504Z,100830.63
2022-08-27T05:03:13.295Z,100820.66
2022-08-27T05:05:42.898Z,100816.78
2022-08-27T05:08:13.079Z,100824.66
2022-08-27T05:10:42.365Z,100825.50
2022-08-27T05:13:12.014Z,100834.81
2022-08-27T05:15:40.281Z,100831.88
2022-08-27T05:18:09.755Z,100824.84
2022-08-27T05:20:45.283Z,100826.91
2022-08-27T05:23:13.333Z,100821.75
2022-08-27T05:25:45.428Z,100821.41
2022-08-27T05:28:14.055Z,100826.75
2022-08-27T05:30:43.632Z,100832.88
2022-08-27T05:33:11.874Z,100820.59
2022-08-27T05:35:43.208Z,100831.41
2022-08-27T05:38:11.413Z,100828.25
2022-08-27T05:40:40.435Z,100836.56
2022-08-27T05:43:08.748Z,100830.97
2022-08-27T05:45:41.523Z,100837.34
2022-08-27T05:48:11.794Z,100833.38
2022-08-27T05:50:40.712Z,100824.88
2022-08-27T05:53:11.895Z,100833.41
2022-08-27T05:55:42.096Z,100832.53
2022-08-27T05:58:34.264Z,100841.47
2022-08-27T06:01:09.947Z,100836.09
2022-08-27T06:03:42.285Z,100838.84
2022-08-27T06:06:12.029Z,100848.13
2022-08-27T06:08:44.170Z,100851.97
2022-08-27T06:11:12.216Z,100847.81
2022-08-27T06:13:39.987Z,100845.75
2022-08-27T06:16:15.886Z,100851.09
2022-08-27T06:18:47.473Z,100845.59
2022-08-27T06:21:17.243Z,100845.50
2022-08-27T06:23:48.602Z,100853.38
2022-08-27T06:26:18.828Z,100854.78
2022-08-27T06:28:48.935Z,100850.56
2022-08-27T06:31:18.856Z,100854.72
2022-08-27T06:33:48.099Z,100849.53
2022-08-27T06:36:18.401Z,100855.38
2022-08-27T06:38:48.663Z,100849.56
2022-08-27T06:41:23.263Z,100861.38
2022-08-27T06:43:52.524Z,100852.19
2022-08-27T06:46:23.138Z,100854.09
2022-08-27T06:48:52.799Z,100855.28
2022-08-27T06:51:24.516Z,100857.31
2022-08-27T06:53:55.071Z,100859.94
2022-08-27T06:56:24.049Z,100853.88
2022-08-27T06:58:55.423Z,100852.78
2022-08-27T07:01:27.206Z,100857.75
2022-08-27T07:03:56.283Z,100850.50
2022-08-27T07:06:26.403Z,100861.00
2022-08-27T07:08:56.925Z,100864.56
2022-08-27T07:11:28.922Z,100862.09
2022-08-27T07:13:57.283Z,100863.34
2022-08-27T07:16:27.258Z,100855.88
2022-08-27T07:19:00.964Z,100856.19
2022-08-27T07:21:33.002Z,100866.78
2022-08-27T07:24:05.039Z,100870.00
2022-08-27T07:26:35.924Z,100867.25
2022-08-27T07:29:04.482Z,100871.59
2022-08-27T07:31:35.660Z,100866.19
2022-08-27T07:34:05.179Z,100876.13
2022-08-27T07:36:34.208Z,100877.56
2022-08-27T07:39:04.790Z,100866.91
2022-08-27T07:41:54.219Z,100867.81
2022-08-27T07:44:33.026Z,100880.25
2022-08-27T07:47:03.216Z,100878.47
2022-08-27T07:49:31.766Z,100886.94
2022-08-27T07:51:59.642Z,100891.00
2022-08-27T07:54:28.794Z,100883.72
2022-08-27T07:56:57.008Z,100892.97
2022-08-27T07:59:25.220Z,100900.34
2022-08-27T08:01:54.739Z,100891.78
2022-08-27T08:04:22.938Z,100899.50
2022-08-27T08:06:51.494Z,100902.63
2022-08-27T08:09:19.475Z,100904.56
2022-08-27T08:11:48.709Z,100898.97
2022-08-27T08:14:16.556Z,100904.75
2022-08-27T08:16:44.461Z,100902.44
2022-08-27T08:19:12.519Z,100903.38
2022-08-27T08:21:40.291Z,100908.03
2022-08-27T08:24:08.334Z,100906.31
2022-08-27T08:26:36.176Z,100913.09
2022-08-27T08:29:05.755Z,100915.22
2022-08-27T08:31:33.559Z,100913.13
2022-08-27T08:34:04.023Z,100915.31
2022-08-27T08:36:31.772Z,100929.91
2022-08-27T08:38:59.658Z,100925.75
2022-08-27T08:41:38.051Z,100930.81
2022-08-27T08:44:12.914Z,100936.28
2022-08-27T08:46:42.633Z,100940.44
2022-08-27T08:49:17.240Z,100935.72
2022-08-27T08:51:47.276Z,100932.34
2022-08-27T08:54:17.891Z,100933.38
2022-08-27T08:56:55.146Z,100938.22
2022-08-27T08:59:29.352Z,100939.50
2022-08-27T09:01:58.068Z,100942.88
2022-08-27T09:04:27.468Z,100943.13
2022-08-27T09:06:59.591Z,100948.66
2022-08-27T09:09:32.807Z,100951.25
2022-08-27T09:12:02.246Z,100946.78
2022-08-27T09:14:37.457Z,100950.38
2022-08-27T09:17:10.756Z,100958.63
2022-08-27T09:19:39.511Z,100948.88
2022-08-27T09:22:17.316Z,100953.66
2022-08-27T09:24:52.935Z,100958.53
2022-08-27T09:27:21.922Z,100952.38
2022-08-27T09:29:53.115Z,100954.22
2022-08-27T09:32:25.951Z,100959.22
2022-08-27T09:34:58.461Z,100962.31
2022-08-27T09:37:34.326Z,100962.31
2022-08-27T09:40:13.693Z,100965.97
2022-08-27T09:42:53.293Z,100967.47
2022-08-27T09:45:25.780Z,100968.59
2022-08-27T09:47:55.707Z,100966.91
2022-08-27T09:50:25.215Z,100962.44
2022-08-27T09:52:55.717Z,100964.44
2022-08-27T09:55:32.058Z,100964.75
2022-08-27T09:58:00.596Z,100964.75
2022-08-27T10:00:36.792Z,100966.38
2022-08-27T10:03:05.414Z,100964.84
2022-08-27T10:05:38.123Z,100973.66
2022-08-27T10:08:11.937Z,100961.91
2022-08-27T10:10:49.695Z,100970.88
2022-08-27T10:13:21.662Z,100969.69
2022-08-27T10:16:01.696Z,100975.78
2022-08-27T10:18:38.147Z,100968.97
2022-08-27T10:21:11.365Z,100980.44
2022-08-27T10:23:46.488Z,100968.72
2022-08-27T10:26:19.348Z,100961.69
2022-08-27T10:29:03.930Z,100969.91
2022-08-27T10:34:16.738Z,100973.56
2022-08-27T10:36:52.222Z,100982.25
2022-08-27T10:39:25.519Z,100973.69
2022-08-27T10:42:01.231Z,100980.06
2022-08-27T10:47:15.430Z,100975.63
2022-08-27T10:49:48.147Z,100976.22
2022-08-27T10:52:19.351Z,100980.75
2022-08-27T10:54:53.427Z,100988.75
2022-08-27T10:57:44.964Z,100983.59
2022-08-27T11:00:15.967Z,100981.13
2022-08-27T11:02:48.116Z,100980.75
2022-08-27T11:05:19.254Z,100982.84
2022-08-27T11:07:49.883Z,100979.88
2022-08-27T11:10:25.312Z,100978.31
2022-08-27T11:12:55.652Z,100989.63
2022-08-27T11:15:26.251Z,100984.16
2022-08-27T11:17:59.831Z,100985.72
2022-08-27T11:20:30.887Z,100982.88
2022-08-27T11:23:03.698Z,100985.81
2022-08-27T11:25:46.575Z,100985.81
2022-08-27T11:28:15.019Z,100986.63
2022-08-27T11:30:51.308Z,100984.16
2022-08-27T11:33:25.717Z,100986.72
2022-08-27T11:36:20.331Z,100982.66
2022-08-27T11:38:55.040Z,100986.22
2022-08-27T11:41:55.484Z,100981.97
2022-08-27T11:44:24.960Z,100989.84
2022-08-27T11:46:57.841Z,100989.94
2022-08-27T11:49:29.688Z,100995.75
2022-08-27T11:52:00.288Z,100993.34
2022-08-27T11:54:31.253Z,100994.53
2022-08-27T11:56:59.164Z,100994.28
2022-08-27T11:59:33.293Z,100991.84
2022-08-27T12:02:14.208Z,100991.81
2022-08-27T12:04:43.767Z,100989.56
2022-08-27T12:07:27.327Z,100994.50
2022-08-27T12:10:05.621Z,100991.88
2022-08-27T12:12:47.887Z,100987.69
2022-08-27T12:15:19.799Z,100994.50
2022-08-27T12:17:54.676Z,100994.91
2022-08-27T12:20:27.405Z,100988.84
2022-08-27T12:23:24.855Z,100997.09
2022-08-27T12:25:57.846Z,100998.97
2022-08-27T12:28:26.923Z,100991.38
2022-08-27T12:30:56.186Z,100991.19
2022-08-27T12:33:31.325Z,100995.13
2022-08-27T12:36:07.230Z,100991.44
2022-08-27T12:38:43.786Z,100992.13
2022-08-27T12:41:25.762Z,100987.00
2022-08-27T12:44:04.617Z,100989.63
2022-08-27T12:46:32.597Z,100990.97
2022-08-27T12:49:38.643Z,100993.19
2022-08-27T12:51:53.437Z,100997.25
2022-08-27T12:54:30.528Z,100993.53
2022-08-27T12:57:02.125Z,100986.34
2022-08-27T12:59:52.584Z,100983.00
2022-08-27T13:02:31.972Z,100986.91
2022-08-27T13:05:04.319Z,100987.28
2022-08-27T13:07:42.755Z,100998.41
2022-08-27T13:10:14.161Z,100994.91
2022-08-27T13:12:43.000Z,100999.16
2022-08-27T13:15:14.451Z,101002.81
2022-08-27T13:17:45.355Z,100993.94
2022-08-27T13:20:16.664Z,101005.19
2022-08-27T13:22:47.024Z,100995.75
2022-08-27T13:25:25.079Z,101000.16
2022-08-27T13:27:55.080Z,100990.31
2022-08-27T13:30:35.783Z,100991.53
2022-08-27T13:33:05.541Z,100990.97
2022-08-27T13:35:33.663Z,100982.28
2022-08-27T13:38:03.761Z,100988.75
2022-08-27T13:40:34.477Z,100992.28
2022-08-27T13:43:08.622Z,100988.94
2022-08-27T13:45:38.458Z,100989.91
2022-08-27T13:48:07.184Z,100991.28
2022-08-27T13:50:36.169Z,100983.94
2022-08-27T13:53:25.436Z,100986.56
2022-08-27T13:55:54.535Z,100978.53
2022-08-27T13:58:26.435Z,100974.91
2022-08-27T14:00:54.829Z,100973.41
2022-08-27T14:03:30.479Z,100979.03
2022-08-27T14:05:58.385Z,100979.44
2022-08-27T14:08:32.123Z,100974.78
2022-08-27T14:11:03.957Z,100975.22
2022-08-27T14:13:39.278Z,100971.75
2022-08-27T14:16:15.890Z,100966.22
2022-08-27T14:18:59.204Z,100973.19
2022-08-27T14:21:27.633Z,100967.66
2022-08-27T14:23:56.879Z,100970.25
2022-08-27T14:26:27.516Z,100970.72
2022-08-27T14:28:55.554Z,100965.22
2022-08-27T14:31:23.634Z,100959.59
2022-08-27T14:33:52.359Z,100961.03
2022-08-27T14:36:20.166Z,100962.56
2022-08-27T14:38:49.856Z,100968.53
2022-08-27T14:41:21.525Z,100962.22
2022-08-27T14:43:49.890Z,100960.00
2022-08-27T14:46:22.457Z,100967.84
2022-08-27T14:48:51.921Z,100965.50
2022-08-27T14:51:24.132Z,100956.94
2022-08-27T14:53:52.644Z,100970.47
2022-08-27T14:56:22.761Z,100956.38
2022-08-27T14:58:50.924Z,100956.84
2022-08-27T15:01:19.135Z,100955.53
2022-08-27T15:03:48.992Z,100957.56
2022-08-27T15:06:17.806Z,100943.88
2022-08-27T15:08:46.016Z,100954.06
2022-08-27T15:11:17.175Z,100955.66
2022-08-27T15:13:46.874Z,100956.91
2022-08-27T15:16:16.778Z,100960.16
2022-08-27T15:18:44.778Z,100964.38
2022-08-27T15:21:28.732Z,100962.63
2022-08-27T15:23:59.474Z,100956.78
2022-08-27T15:26:27.412Z,100954.22
2022-08-27T15:28:56.608Z,100951.94
2022-08-27T15:31:24.847Z,100951.94
2022-08-27T15:33:52.651Z,100954.22
2022-08-27T15:36:20.463Z,100958.41
2022-08-27T15:38:48.225Z,100947.91
2022-08-27T15:41:16.270Z,100955.97
2022-08-27T15:43:44.219Z,100946.47
2022-08-27T15:46:14.014Z,100950.50
2022-08-27T15:48:41.947Z,100941.94
2022-08-27T15:51:13.520Z,100950.19
2022-08-27T15:53:42.440Z,100951.47
2022-08-27T15:56:10.489Z,100947.59
2022-08-27T15:58:38.657Z,100945.50
2022-08-27T16:01:10.461Z,100947.78
2022-08-27T16:03:42.273Z,100951.97
2022-08-27T16:06:10.454Z,100946.81
2022-08-27T16:08:42.206Z,100946.31
2022-08-27T16:11:10.277Z,100939.84
2022-08-27T16:13:38.070Z,100948.28
2022-08-27T16:16:07.576Z,100949.38
2022-08-27T16:18:36.503Z,100947.63
2022-08-27T16:21:06.512Z,100952.97
2022-08-27T16:23:34.881Z,100947.13
2022-08-27T16:26:04.568Z,100945.50
2022-08-27T16:28:32.281Z,100948.88
2022-08-27T16:31:00.156Z,100952.41
2022-08-27T16:33:30.347Z,100951.94
2022-08-27T16:35:58.103Z,100954.38
2022-08-27T16:38:27.163Z,100953.53
2022-08-27T16:40:56.660Z,100957.56
2022-08-27T16:43:26.294Z,100959.84
2022-08-27T16:45:55.303Z,100964.53
2022-08-27T16:48:44.343Z,100957.44
2022-08-27T16:51:19.686Z,100966.13
2022-08-27T16:53:49.824Z,100958.91
2022-08-27T16:56:18.028Z,100963.34
2022-08-27T16:58:48.988Z,100963.31
2022-08-27T17:01:19.323Z,100972.56
2022-08-27T17:04:08.131Z,100961.94
2022-08-27T17:06:39.768Z,100960.03
2022-08-27T17:09:10.241Z,100969.00
2022-08-27T17:11:41.790Z,100963.31
2022-08-27T17:14:10.771Z,100966.56
2022-08-27T17:16:38.789Z,100967.41
2022-08-27T17:19:07.260Z,100973.13
2022-08-27T17:21:36.964Z,100970.25
2022-08-27T17:24:05.632Z,100973.13
2022-08-27T17:26:41.987Z,100976.09
2022-08-27T17:29:09.749Z,100984.66
2022-08-27T17:31:40.143Z,100990.16
2022-08-27T17:34:08.326Z,100987.78
2022-08-27T17:36:36.064Z,100984.72
2022-08-27T17:39:04.720Z,100990.94
2022-08-27T17:41:37.837Z,100988.13
2022-08-27T17:44:10.758Z,100997.41
2022-08-27T17:46:38.549Z,100993.53
2022-08-27T17:49:06.295Z,101002.56
2022-08-27T17:51:35.885Z,101007.31
2022-08-27T17:54:25.089Z,101003.09
2022-08-27T17:56:52.860Z,101007.41
2022-08-27T17:59:21.910Z,101008.59
2022-08-27T18:01:49.764Z,101014.09
2022-08-27T18:04:17.827Z,101014.38
2022-08-27T18:06:45.632Z,101017.38
2022-08-27T18:09:15.757Z,101026.66
2022-08-27T18:11:44.383Z,101020.50
2022-08-27T18:14:12.653Z,101029.06
2022-08-27T18:16:47.262Z,101029.22
2022-08-27T18:19:15.052Z,101033.75
2022-08-27T18:21:46.441Z,101039.41
2022-08-27T18:24:15.611Z,101021.19
2022-08-27T18:26:44.695Z,101036.84
2022-08-27T18:29:14.297Z,101041.19
2022-08-27T18:31:42.298Z,101038.66
2022-08-27T18:34:11.393Z,101044.75
2022-08-27T18:36:39.119Z,101054.88
2022-08-27T18:39:06.821Z,101054.81
2022-08-27T18:41:34.608Z,101056.38
2022-08-27T18:44:11.507Z,101055.50
2022-08-27T18:46:45.995Z,101058.47
2022-08-27T18:49:15.164Z,101066.19
2022-08-27T18:51:43.931Z,101062.88
2022-08-27T18:54:12.107Z,101065.41
2022-08-27T18:56:39.832Z,101068.03
2022-08-27T18:59:07.549Z,101068.63
2022-08-27T19:01:35.368Z,101071.22
2022-08-27T19:04:05.644Z,101061.25
2022-08-27T19:06:34.999Z,101063.69
2022-08-27T19:09:07.464Z,101065.00
2022-08-27T19:11:35.172Z,101069.88
2022-08-27T19:14:05.417Z,101076.47
2022-08-27T19:16:40.927Z,101075.13
2022-08-27T19:19:08.688Z,101075.13
2022-08-27T19:21:38.135Z,101080.69
2022-08-27T19:24:06.643Z,101076.25
2022-08-27T19:26:34.713Z,101080.91
2022-08-27T19:29:06.405Z,101085.28
2022-08-27T19:31:36.361Z,101086.97
2022-08-27T19:34:05.713Z,101089.19
2022-08-27T19:36:42.038Z,101088.97
2022-08-27T19:39:12.115Z,101090.41
2022-08-27T19:41:39.982Z,101093.47
2022-08-27T19:44:07.795Z,101092.84
2022-08-27T19:46:36.494Z,101100.59
2022-08-27T19:49:07.652Z,101103.97
2022-08-27T19:51:36.796Z,101104.66
2022-08-27T19:54:09.868Z,101113.81
2022-08-27T19:56:38.215Z,101103.38
2022-08-27T19:59:20.540Z,101110.16
2022-08-27T20:01:49.559Z,101108.75
2022-08-27T20:04:17.341Z,101116.72
2022-08-27T20:06:46.581Z,101107.72
2022-08-27T20:09:16.041Z,101115.22
2022-08-27T20:11:45.744Z,101112.91
2022-08-27T20:14:13.674Z,101119.16
2022-08-27T20:16:41.506Z,101113.34
2022-08-27T20:19:10.122Z,101106.69
2022-08-27T20:21:38.277Z,101115.19
2022-08-27T20:24:07.555Z,101106.59
2022-08-27T20:26:35.709Z,101103.88
2022-08-27T20:29:05.197Z,101108.25
2022-08-27T20:31:32.940Z,101113.16
2022-08-27T20:34:00.700Z,101118.75
2022-08-27T20:36:29.904Z,101116.19
2022-08-27T20:38:57.632Z,101120.69
2022-08-27T20:41:27.097Z,101115.84
2022-08-27T20:43:55.039Z,101112.56
2022-08-27T20:46:25.576Z,101107.44
2022-08-27T20:48:54.199Z,101110.38
2022-08-27T20:51:22.290Z,101114.13
2022-08-27T20:53:50.015Z,101112.50
2022-08-27T20:56:17.785Z,101120.00
2022-08-27T20:59:04.953Z,101123.72
2022-08-27T21:01:32.745Z,101117.69
2022-08-27T21:04:00.512Z,101123.63
2022-08-27T21:06:33.330Z,101123.28
2022-08-27T21:09:01.205Z,101122.28
2022-08-27T21:11:29.544Z,101122.56
2022-08-27T21:13:58.620Z,101118.13
2022-08-27T21:16:26.590Z,101127.44
2022-08-27T21:18:55.457Z,101123.88
2022-08-27T21:21:23.482Z,101128.91
2022-08-27T21:23:51.192Z,101126.34
2022-08-27T21:26:20.028Z,101128.03
2022-08-27T21:28:47.744Z,101129.63
2022-08-27T21:31:16.868Z,101127.34
2022-08-27T21:33:44.591Z,101122.19
2022-08-27T21:36:12.600Z,101129.25
2022-08-27T21:38:40.440Z,101126.31
2022-08-27T21:41:08.496Z,101120.88
2022-08-27T21:43:36.316Z,101124.72
2022-08-27T21:46:04.393Z,101130.66
2022-08-27T21:48:36.313Z,101133.69
2022-08-27T21:51:08.633Z,101118.06
2022-08-27T21:53:36.742Z,101122.22
2022-08-27T21:56:05.502Z,101124.41
2022-08-27T21:58:33.438Z,101116.31
2022-08-27T22:01:05.102Z,101123.34
2022-08-27T22:03:33.889Z,101119.72
2022-08-27T22:06:07.888Z,101116.19
2022-08-27T22:08:35.697Z,101122.16
2022-08-27T22:11:07.528Z,101123.00
2022-08-27T22:13:35.242Z,101124.25
2022-08-27T22:16:04.414Z,101120.28
2022-08-27T22:18:32.353Z,101117.31
2022-08-27T22:21:00.485Z,101131.13
2022-08-27T22:23:31.716Z,101123.41
2022-08-27T22:26:00.733Z,101126.31
2022-08-27T22:28:29.763Z,101132.38
2022-08-27T22:30:57.630Z,101131.63
2022-08-27T22:33:25.539Z,101130.06
2022-08-27T22:35:53.364Z,101131.13
2022-08-27T22:38:21.062Z,101127.44
2022-08-27T22:40:51.049Z,101121.78
2022-08-27T22:43:19.596Z,101136.91
2022-08-27T22:45:47.296Z,101130.59
2022-08-27T22:48:15.011Z,101121.69
2022-08-27T22:50:42.781Z,101130.53
2022-08-27T22:53:10.728Z,101122.84
2022-08-27T22:55:38.561Z,101121.84
2022-08-27T22:58:07.613Z,101130.53
2022-08-27T23:00:40.777Z,101123.31
2022-08-27T23:03:10.088Z,101130.19
2022-08-27T23:05:40.264Z,101130.38
2022-08-27T23:08:11.490Z,101130.13
2022-08-27T23:10:39.764Z,101133.31
2022-08-27T23:13:09.630Z,101129.53
2022-08-27T23:15:38.430Z,101134.56
2022-08-27T23:18:06.565Z,101132.34
2022-08-27T23:20:34.402Z,101130.25
2022-08-27T23:23:03.084Z,101125.28
2022-08-27T23:25:48.738Z,101122.13
2022-08-27T23:28:18.083Z,101121.66
2022-08-27T23:30:46.615Z,101121.31
2022-08-27T23:33:14.819Z,101133.06
2022-08-27T23:35:47.523Z,101122.53
2022-08-27T23:38:16.248Z,101123.06
2022-08-27T23:40:44.038Z,101125.53
2022-08-27T23:43:12.092Z,101120.72
2022-08-27T23:45:41.165Z,101117.78
2022-08-27T23:48:09.167Z,101124.84
2022-08-27T23:50:37.502Z,101123.28
2022-08-27T23:53:06.253Z,101124.09
2022-08-27T23:55:34.596Z,101128.38
2022-08-27T23:58:03.024Z,101124.41
